createdAt,value
2023-05-10T00:00:22.173Z,75.55
2023-05-10T00:02:48.755Z,75.93
2023-05-10T00:05:15.310Z,75.10
2023-05-10T00:07:41.774Z,75.26
2023-05-10T00:10:08.522Z,74.47
2023-05-10T00:12:36.324Z,74.57
2023-05-10T00:15:02.851Z,75.01
2023-05-10T00:17:29.320Z,75.34
2023-05-10T00:19:55.857Z,76.10
2023-05-10T00:22:22.300Z,76.17
2023-05-10T00:24:48.753Z,75.51
2023-05-10T00:27:15.218Z,76.34
2023-05-10T00:29:43.060Z,77.12
2023-05-10T00:32:09.520Z,77.61
2023-05-10T00:34:36.017Z,77.04
2023-05-10T00:37:02.455Z,77.32
2023-05-10T00:39:28.920Z,76.90
2023-05-10T00:41:55.335Z,76.10
2023-05-10T00:44:21.787Z,75.59
2023-05-10T00:46:49.635Z,76.15
2023-05-10T00:49:16.067Z,76.88
2023-05-10T00:51:42.463Z,75.71
2023-05-10T00:54:08.910Z,76.90
2023-05-10T00:56:35.337Z,77.61
2023-05-10T00:59:01.816Z,77.78
2023-05-10T01:01:28.289Z,77.48
2023-05-10T01:03:56.124Z,76.73
2023-05-10T01:06:22.601Z,77.21
2023-05-10T01:08:49.009Z,77.54
2023-05-10T01:11:15.474Z,77.71
2023-05-10T01:13:42.296Z,77.62
2023-05-10T01:16:08.814Z,78.47
2023-05-10T01:18:36.467Z,77.32
2023-05-10T01:21:09.006Z,76.83
2023-05-10T01:23:37.429Z,76.63
2023-05-10T01:26:18.695Z,76.45
2023-05-10T01:29:11.972Z,76.23
2023-05-10T01:31:56.368Z,76.70
2023-05-10T01:34:25.136Z,76.20
2023-05-10T01:36:52.366Z,77.07
2023-05-10T01:39:21.851Z,76.54
2023-05-10T01:41:49.159Z,76.29
2023-05-10T01:44:18.110Z,75.91
2023-05-10T01:46:44.617Z,75.85
2023-05-10T01:49:13.017Z,76.12
2023-05-10T01:51:43.023Z,75.09
2023-05-10T01:54:09.459Z,74.94
2023-05-10T01:56:36.026Z,75.59
2023-05-10T01:59:02.762Z,75.43
2023-05-10T02:01:29.190Z,75.84
2023-05-10T02:03:55.856Z,76.11
2023-05-10T02:06:22.409Z,75.18
2023-05-10T02:08:50.288Z,74.84
2023-05-10T02:11:16.720Z,74.45
2023-05-10T02:13:43.248Z,74.13
2023-05-10T02:16:09.715Z,73.69
2023-05-10T02:18:36.187Z,73.98
2023-05-10T02:21:02.694Z,73.95
2023-05-10T02:23:29.160Z,74.01
2023-05-10T02:25:57.467Z,74.24
2023-05-10T02:28:24.328Z,73.82
2023-05-10T02:30:50.876Z,73.83
2023-05-10T02:33:17.280Z,74.10
2023-05-10T02:35:43.714Z,73.97
2023-05-10T02:38:10.169Z,74.40
2023-05-10T02:40:36.653Z,74.25
2023-05-10T02:43:04.460Z,74.81
2023-05-10T02:45:31.520Z,74.98
2023-05-10T02:47:58.047Z,74.31
2023-05-10T02:50:24.498Z,74.63
2023-05-10T02:52:51.910Z,74.69
2023-05-10T02:55:19.002Z,74.61
2023-05-10T02:57:47.799Z,74.26
2023-05-10T03:00:16.219Z,74.79
2023-05-10T03:02:42.949Z,74.82
2023-05-10T03:05:09.554Z,75.40
2023-05-10T03:07:35.994Z,75.68
2023-05-10T03:10:02.499Z,76.26
2023-05-10T03:12:32.881Z,76.42
2023-05-10T03:15:01.838Z,76.03
2023-05-10T03:17:32.020Z,76.82
2023-05-10T03:19:58.988Z,77.34
2023-05-10T03:22:25.963Z,77.62
2023-05-10T03:24:52.449Z,78.02
2023-05-10T03:27:18.912Z,78.15
2023-05-10T03:29:45.493Z,77.76
2023-05-10T03:32:11.924Z,77.29
2023-05-10T03:34:43.494Z,77.37
2023-05-10T03:37:09.934Z,77.59
2023-05-10T03:39:36.353Z,77.76
2023-05-10T03:42:02.838Z,77.86
2023-05-10T03:44:29.311Z,77.90
2023-05-10T03:46:55.734Z,77.16
2023-05-10T03:49:22.197Z,77.14
2023-05-10T03:51:50.003Z,77.81
2023-05-10T03:54:16.420Z,78.30
2023-05-10T03:56:42.849Z,78.32
2023-05-10T03:59:09.537Z,78.63
2023-05-10T04:01:36.118Z,78.93
2023-05-10T04:04:02.649Z,79.33
2023-05-10T04:06:29.166Z,79.38
2023-05-10T04:08:57.091Z,78.77
2023-05-10T04:11:23.504Z,78.67
2023-05-10T04:13:49.956Z,79.03
2023-05-10T04:16:16.386Z,78.48
2023-05-10T04:18:42.883Z,78.40
2023-05-10T04:21:12.260Z,78.34
2023-05-10T04:23:38.716Z,77.75
2023-05-10T04:26:06.578Z,78.05
2023-05-10T04:28:33.026Z,77.25
2023-05-10T04:31:03.073Z,77.69
2023-05-10T04:33:29.534Z,77.92
2023-05-10T04:35:55.986Z,79.12
2023-05-10T04:38:22.429Z,79.48
2023-05-10T04:40:48.994Z,80.27
2023-05-10T04:43:16.836Z,80.89
2023-05-10T04:45:43.293Z,80.22
2023-05-10T04:48:09.767Z,80.19
2023-05-10T04:50:36.187Z,79.86
2023-05-10T04:53:02.595Z,80.05
2023-05-10T04:55:29.097Z,79.33
2023-05-10T04:57:55.543Z,80.88
2023-05-10T05:00:23.559Z,80.74
2023-05-10T05:02:50.237Z,80.77
2023-05-10T05:05:16.795Z,81.36
2023-05-10T05:07:43.221Z,81.58
2023-05-10T05:10:09.893Z,81.96
2023-05-10T05:12:36.312Z,81.79
2023-05-10T05:15:02.727Z,81.71
2023-05-10T05:17:32.314Z,80.99
2023-05-10T05:19:58.826Z,81.01
2023-05-10T05:22:25.237Z,81.19
2023-05-10T05:24:51.686Z,81.28
2023-05-10T05:27:18.093Z,81.98
2023-05-10T05:29:44.646Z,81.33
2023-05-10T05:32:11.166Z,82.14
2023-05-10T05:34:39.147Z,82.30
2023-05-10T05:37:05.734Z,82.88
2023-05-10T05:39:32.183Z,83.12
2023-05-10T05:41:58.625Z,81.74
2023-05-10T05:44:25.085Z,80.87
2023-05-10T05:46:51.514Z,80.54
2023-05-10T05:49:17.962Z,79.43
2023-05-10T05:51:45.731Z,78.80
2023-05-10T05:54:12.194Z,78.98
2023-05-10T05:56:38.587Z,79.64
2023-05-10T05:59:05.073Z,79.39
2023-05-10T06:01:31.499Z,79.97
2023-05-10T06:03:57.971Z,79.24
2023-05-10T06:06:24.524Z,77.61
2023-05-10T06:08:52.355Z,77.64
2023-05-10T06:11:18.875Z,77.39
2023-05-10T06:13:45.324Z,77.40
2023-05-10T06:16:11.760Z,76.62
2023-05-10T06:18:38.257Z,77.64
2023-05-10T06:21:04.868Z,76.12
2023-05-10T06:23:31.323Z,76.03
2023-05-10T06:25:59.110Z,76.79
2023-05-10T06:28:25.522Z,76.45
2023-05-10T06:30:52.031Z,76.53
2023-05-10T06:33:18.460Z,76.29
2023-05-10T06:35:44.909Z,76.08
2023-05-10T06:38:11.329Z,76.87
2023-05-10T06:40:37.805Z,76.44
2023-05-10T06:43:05.687Z,76.49
2023-05-10T06:45:32.135Z,76.91
2023-05-10T06:47:58.741Z,75.50
2023-05-10T06:50:25.206Z,74.94
2023-05-10T06:52:53.071Z,75.77
2023-05-10T06:55:19.852Z,74.35
2023-05-10T06:57:46.324Z,74.17
2023-05-10T07:00:15.106Z,75.37
2023-05-10T07:02:41.975Z,75.48
2023-05-10T07:05:09.132Z,74.89
2023-05-10T07:07:35.663Z,73.81
2023-05-10T07:10:02.237Z,73.57
2023-05-10T07:12:28.721Z,73.97
2023-05-10T07:14:55.222Z,72.82
2023-05-10T07:17:23.137Z,72.26
2023-05-10T07:19:49.619Z,73.10
2023-05-10T07:22:16.293Z,73.18
2023-05-10T07:24:42.798Z,73.35
2023-05-10T07:27:09.296Z,72.32
2023-05-10T07:29:35.902Z,72.04
2023-05-10T07:32:02.393Z,72.17
2023-05-10T07:34:30.569Z,70.99
2023-05-10T07:36:57.465Z,71.34
2023-05-10T07:39:27.682Z,72.17
2023-05-10T07:41:54.723Z,72.06
2023-05-10T07:44:21.254Z,71.81
2023-05-10T07:46:47.788Z,71.00
2023-05-10T07:49:14.306Z,70.17
2023-05-10T07:51:42.361Z,70.15
2023-05-10T07:54:08.770Z,69.80
2023-05-10T07:56:35.239Z,69.90
2023-05-10T07:59:01.848Z,69.71
2023-05-10T08:01:30.967Z,69.80
2023-05-10T08:03:57.557Z,70.17
2023-05-10T08:06:24.090Z,69.31
2023-05-10T08:08:51.928Z,69.08
2023-05-10T08:11:18.488Z,68.21
2023-05-10T08:13:44.999Z,69.47
2023-05-10T08:16:11.515Z,69.72
2023-05-10T08:18:37.974Z,69.71
2023-05-10T08:21:04.462Z,67.90
2023-05-10T08:23:30.931Z,68.12
2023-05-10T08:25:58.792Z,66.24
2023-05-10T08:28:25.218Z,67.82
2023-05-10T08:30:51.781Z,66.42
2023-05-10T08:33:18.459Z,66.78
2023-05-10T08:35:44.906Z,67.51
2023-05-10T08:38:11.348Z,65.84
2023-05-10T08:40:38.101Z,67.47
2023-05-10T08:43:06.633Z,67.74
2023-05-10T08:45:33.426Z,65.29
2023-05-10T08:48:00.417Z,67.29
2023-05-10T08:50:26.966Z,65.02
2023-05-10T08:52:53.520Z,63.17
2023-05-10T08:55:19.934Z,62.62
2023-05-10T08:57:46.377Z,63.27
2023-05-10T09:00:14.749Z,63.66
2023-05-10T09:02:41.213Z,64.46
2023-05-10T09:05:08.227Z,64.46
2023-05-10T09:07:35.853Z,64.41
2023-05-10T09:10:02.814Z,63.80
2023-05-10T09:12:29.282Z,65.02
2023-05-10T09:14:55.734Z,64.70
2023-05-10T09:17:23.822Z,63.97
2023-05-10T09:19:50.348Z,63.10
2023-05-10T09:22:16.946Z,63.94
2023-05-10T09:24:43.803Z,63.05
2023-05-10T09:27:10.282Z,63.96
2023-05-10T09:29:40.080Z,63.29
2023-05-10T09:32:06.530Z,63.73
2023-05-10T09:34:34.448Z,62.28
2023-05-10T09:37:01.387Z,61.44
2023-05-10T09:39:31.275Z,61.13
2023-05-10T09:41:58.674Z,61.60
2023-05-10T09:44:25.955Z,62.04
2023-05-10T09:46:52.421Z,59.88
2023-05-10T09:49:18.907Z,58.18
2023-05-10T09:51:46.735Z,56.77
2023-05-10T09:54:13.711Z,57.23
2023-05-10T09:56:40.222Z,58.11
2023-05-10T09:59:07.256Z,58.08
2023-05-10T10:01:34.287Z,57.65
2023-05-10T10:04:01.236Z,57.46
2023-05-10T10:06:30.471Z,58.52
2023-05-10T10:09:00.530Z,57.37
2023-05-10T10:11:27.011Z,57.35
2023-05-10T10:13:53.486Z,57.15
2023-05-10T10:16:19.953Z,57.30
2023-05-10T10:18:46.481Z,56.28
2023-05-10T10:21:14.177Z,56.42
2023-05-10T10:30:21.607Z,54.66
2023-05-10T10:33:27.133Z,56.28
2023-05-10T10:35:56.411Z,58.02
2023-05-10T10:38:29.893Z,60.28
2023-05-10T10:41:03.014Z,61.71
2023-05-10T10:43:30.901Z,67.14
2023-05-10T10:46:13.509Z,75.82
2023-05-10T10:48:39.975Z,79.02
2023-05-10T10:51:06.452Z,77.12
2023-05-10T10:53:33.106Z,76.48
2023-05-10T10:56:17.208Z,75.84
2023-05-10T10:58:50.149Z,75.47
2023-05-10T11:01:17.043Z,76.05
2023-05-10T11:03:56.315Z,77.13
2023-05-10T11:06:29.620Z,78.44
2023-05-10T11:08:56.055Z,79.64
2023-05-10T11:11:22.495Z,78.44
2023-05-10T11:13:51.468Z,78.31
2023-05-10T11:16:18.712Z,81.07
2023-05-10T11:18:55.060Z,82.37
2023-05-10T11:21:21.681Z,82.26
2023-05-10T11:23:51.840Z,83.80
2023-05-10T11:26:18.384Z,84.22
2023-05-10T11:28:45.066Z,83.63
2023-05-10T11:31:12.970Z,83.47
2023-05-10T11:33:43.551Z,83.35
2023-05-10T11:36:11.584Z,82.75
2023-05-10T11:38:38.020Z,81.91
2023-05-10T11:41:04.539Z,82.25
2023-05-10T11:43:31.030Z,81.59
2023-05-10T11:45:57.502Z,81.26
2023-05-10T11:48:25.346Z,81.51
2023-05-10T11:50:51.770Z,82.27
2023-05-10T11:53:18.208Z,82.15
2023-05-10T11:56:12.008Z,81.59
2023-05-10T11:58:41.542Z,81.83
2023-05-10T12:01:08.708Z,80.85
2023-05-10T12:03:39.739Z,81.64
2023-05-10T12:06:06.371Z,81.10
2023-05-10T12:08:32.801Z,82.06
2023-05-10T12:11:05.389Z,81.98
2023-05-10T12:13:37.789Z,80.58
2023-05-10T12:19:14.778Z,81.03
2023-05-10T12:21:41.239Z,80.27
2023-05-10T12:24:07.719Z,79.73
2023-05-10T12:26:34.214Z,79.53
2023-05-10T12:29:13.250Z,79.15
2023-05-10T12:31:49.807Z,78.66
2023-05-10T12:34:24.655Z,79.80
2023-05-10T12:36:51.337Z,80.68
2023-05-10T12:39:17.764Z,78.99
2023-05-10T12:41:44.242Z,79.56
2023-05-10T12:44:10.717Z,79.99
2023-05-10T12:46:37.156Z,79.06
2023-05-10T12:49:08.903Z,80.05
2023-05-10T12:51:37.550Z,80.02
2023-05-10T12:54:04.093Z,78.90
2023-05-10T12:56:30.602Z,79.49
2023-05-10T12:58:57.115Z,78.69
2023-05-10T13:01:23.694Z,80.32
2023-05-10T13:03:50.165Z,80.68
2023-05-10T13:06:16.664Z,80.05
2023-05-10T13:08:44.507Z,78.10
2023-05-10T13:11:10.945Z,78.05
2023-05-10T13:13:37.389Z,78.64
2023-05-10T13:16:03.964Z,79.31
2023-05-10T13:18:30.564Z,79.39
2023-05-10T13:20:57.053Z,80.17
2023-05-10T13:23:23.472Z,79.43
2023-05-10T13:25:51.308Z,79.66
2023-05-10T13:28:17.735Z,79.53
2023-05-10T13:30:44.199Z,80.19
2023-05-10T13:33:10.600Z,79.94
2023-05-10T13:35:37.059Z,78.27
2023-05-10T13:38:03.514Z,79.15
2023-05-10T13:40:47.591Z,79.57
2023-05-10T13:43:15.590Z,78.79
2023-05-10T13:45:42.034Z,78.89
2023-05-10T13:48:10.536Z,79.50
2023-05-10T13:50:37.182Z,79.01
2023-05-10T13:54:13.418Z,78.11
2023-05-10T13:56:07.998Z,79.52
2023-05-10T13:58:37.770Z,78.87
2023-05-10T14:01:04.267Z,78.40
2023-05-10T14:03:30.814Z,79.27
2023-05-10T14:05:57.354Z,78.56
2023-05-10T14:08:23.796Z,77.45
2023-05-10T14:10:50.239Z,78.65
2023-05-10T14:13:16.726Z,78.92
2023-05-10T14:15:44.619Z,78.44
2023-05-10T14:18:11.105Z,77.80
2023-05-10T14:20:37.620Z,78.30
2023-05-10T14:23:04.069Z,78.24
2023-05-10T14:25:30.511Z,78.12
2023-05-10T14:27:56.983Z,78.63
2023-05-10T14:30:23.401Z,78.67
2023-05-10T14:32:51.322Z,80.29
2023-05-10T14:35:19.747Z,80.66
2023-05-10T14:37:46.608Z,80.71
2023-05-10T14:40:13.461Z,80.18
2023-05-10T14:42:39.934Z,79.53
2023-05-10T14:45:06.717Z,79.42
2023-05-10T14:47:33.194Z,80.15
2023-05-10T14:50:01.083Z,80.44
2023-05-10T14:52:27.552Z,80.37
2023-05-10T14:54:53.974Z,79.81
2023-05-10T14:57:20.425Z,80.90
2023-05-10T14:59:46.870Z,80.43
2023-05-10T15:02:13.776Z,80.33
2023-05-10T15:04:40.594Z,80.73
2023-05-10T15:07:13.248Z,80.44
2023-05-10T15:09:39.709Z,80.52
2023-05-10T15:12:06.161Z,80.70
2023-05-10T15:14:32.570Z,81.55
2023-05-10T15:16:59.066Z,82.45
2023-05-10T15:19:25.495Z,81.94
2023-05-10T15:21:51.994Z,81.69
2023-05-10T15:24:19.839Z,80.40
2023-05-10T15:26:46.261Z,80.23
2023-05-10T15:29:12.669Z,80.09
2023-05-10T15:31:39.228Z,81.37
2023-05-10T15:34:05.665Z,82.28
2023-05-10T15:36:32.501Z,81.60
2023-05-10T15:38:58.911Z,81.86
2023-05-10T15:41:26.754Z,81.42
2023-05-10T15:43:53.277Z,80.71
2023-05-10T15:46:19.791Z,80.48
2023-05-10T15:48:46.318Z,80.62
2023-05-10T15:51:12.776Z,80.93
2023-05-10T15:53:46.651Z,80.32
2023-05-10T15:56:19.493Z,80.78
2023-05-10T15:58:47.303Z,81.00
2023-05-10T16:01:13.768Z,80.32
2023-05-10T16:03:40.274Z,80.55
2023-05-10T16:06:06.897Z,79.23
2023-05-10T16:08:33.348Z,79.43
2023-05-10T16:10:59.834Z,80.12
2023-05-10T16:13:26.242Z,79.59
2023-05-10T16:15:54.153Z,79.82
2023-05-10T16:18:20.666Z,79.47
2023-05-10T16:20:47.117Z,78.80
2023-05-10T16:23:13.612Z,78.81
2023-05-10T16:25:40.103Z,79.99
2023-05-10T16:28:06.571Z,79.33
2023-05-10T16:30:33.008Z,79.60
2023-05-10T16:33:01.078Z,79.84
2023-05-10T16:35:27.565Z,79.70
2023-05-10T16:37:54.320Z,81.06
2023-05-10T16:40:20.859Z,81.38
2023-05-10T16:42:47.330Z,81.92
2023-05-10T16:45:13.980Z,82.15
2023-05-10T16:47:40.587Z,81.88
2023-05-10T16:50:08.978Z,81.81
2023-05-10T16:52:35.691Z,82.18
2023-05-10T16:55:02.244Z,81.93
2023-05-10T16:57:28.669Z,81.46
2023-05-10T16:59:55.119Z,81.71
2023-05-10T17:02:23.563Z,81.02
2023-05-10T17:04:50.096Z,80.58
2023-05-10T17:07:17.888Z,80.64
2023-05-10T17:09:44.363Z,80.85
2023-05-10T17:12:10.816Z,80.49
2023-05-10T17:14:37.297Z,79.81
2023-05-10T17:17:03.811Z,80.54
2023-05-10T17:19:30.264Z,80.78
2023-05-10T17:21:56.767Z,80.67
2023-05-10T17:24:24.584Z,80.27
2023-05-10T17:26:53.993Z,80.44
2023-05-10T17:29:20.434Z,80.18
2023-05-10T17:31:46.923Z,80.53
2023-05-10T17:34:13.454Z,79.89
2023-05-10T17:36:39.948Z,80.05
2023-05-10T17:39:06.379Z,80.49
2023-05-10T17:41:34.178Z,80.37
2023-05-10T17:44:00.623Z,80.35
2023-05-10T17:46:27.102Z,80.93
2023-05-10T17:48:53.525Z,81.36
2023-05-10T17:51:20.016Z,81.33
2023-05-10T17:53:46.456Z,80.95
2023-05-10T17:56:12.972Z,81.91
2023-05-10T17:58:40.747Z,81.03
2023-05-10T18:01:07.308Z,80.87
2023-05-10T18:03:33.802Z,81.74
2023-05-10T18:06:00.353Z,81.70
2023-05-10T18:08:27.048Z,80.74
2023-05-10T18:11:02.540Z,80.10
2023-05-10T18:13:38.098Z,79.98
2023-05-10T18:16:06.165Z,79.83
2023-05-10T18:18:32.645Z,79.15
2023-05-10T18:20:59.254Z,80.18
2023-05-10T18:23:25.757Z,80.35
2023-05-10T18:25:52.393Z,79.48
2023-05-10T18:28:18.950Z,79.62
2023-05-10T18:30:45.602Z,79.74
2023-05-10T18:33:13.525Z,80.28
2023-05-10T18:35:40.145Z,79.36
2023-05-10T18:38:06.644Z,79.71
2023-05-10T18:40:35.668Z,78.27
2023-05-10T18:43:02.612Z,77.75
2023-05-10T18:45:29.076Z,77.36
2023-05-10T18:47:57.691Z,78.00
2023-05-10T18:50:25.599Z,78.57
2023-05-10T18:52:52.153Z,78.42
2023-05-10T18:55:21.320Z,78.24
2023-05-10T18:57:47.781Z,78.42
2023-05-10T19:00:14.390Z,79.08
2023-05-10T19:02:40.866Z,77.66
2023-05-10T19:05:07.927Z,78.45
2023-05-10T19:07:35.744Z,78.32
2023-05-10T19:10:02.204Z,77.68
2023-05-10T19:12:28.697Z,76.97
2023-05-10T19:14:55.184Z,77.51
2023-05-10T19:17:21.832Z,78.17
2023-05-10T19:19:48.870Z,77.94
2023-05-10T19:22:15.296Z,77.61
2023-05-10T19:24:46.236Z,77.77
2023-05-10T19:27:13.183Z,78.26
2023-05-10T19:29:39.811Z,78.40
2023-05-10T19:32:06.414Z,77.91
2023-05-10T19:34:32.922Z,78.03
2023-05-10T19:36:59.388Z,78.60
2023-05-10T19:39:27.080Z,77.46
2023-05-10T19:41:55.169Z,77.69
2023-05-10T19:44:21.662Z,77.38
2023-05-10T19:46:48.089Z,77.07
2023-05-10T19:49:14.608Z,77.07
2023-05-10T19:51:41.080Z,77.08
2023-05-10T19:54:07.672Z,77.09
2023-05-10T19:56:34.120Z,77.12
2023-05-10T19:59:02.035Z,77.36
2023-05-10T20:01:33.379Z,77.90
2023-05-10T20:03:59.932Z,77.27
2023-05-10T20:06:26.432Z,76.96
2023-05-10T20:08:53.007Z,77.36
2023-05-10T20:11:19.465Z,76.76
2023-05-10T20:13:45.907Z,76.87
2023-05-10T20:16:15.665Z,77.41
2023-05-10T20:18:42.179Z,77.17
2023-05-10T20:21:08.588Z,77.08
2023-05-10T20:23:35.087Z,77.47
2023-05-10T20:26:01.531Z,77.50
2023-05-10T20:28:33.965Z,77.62
2023-05-10T20:31:03.453Z,76.95
2023-05-10T20:33:31.329Z,76.58
2023-05-10T20:35:57.777Z,77.29
2023-05-10T20:38:24.221Z,77.23
2023-05-10T20:40:53.327Z,77.57
2023-05-10T20:43:19.800Z,77.41
2023-05-10T20:45:46.292Z,77.56
2023-05-10T20:48:12.796Z,77.56
2023-05-10T20:50:40.598Z,77.06
2023-05-10T20:53:07.084Z,76.57
2023-05-10T20:55:33.528Z,75.46
2023-05-10T20:58:00.741Z,76.66
2023-05-10T21:00:28.035Z,76.22
2023-05-10T21:02:54.525Z,76.77
2023-05-10T21:05:21.075Z,75.81
2023-05-10T21:07:48.905Z,75.97
2023-05-10T21:10:15.509Z,75.57
2023-05-10T21:12:41.984Z,76.24
2023-05-10T21:15:09.092Z,76.11
2023-05-10T21:17:35.541Z,76.69
2023-05-10T21:20:02.003Z,76.07
2023-05-10T21:22:28.486Z,74.89
2023-05-10T21:24:56.276Z,76.45
2023-05-10T21:27:22.772Z,76.68
2023-05-10T21:29:49.200Z,76.80
2023-05-10T21:32:17.566Z,76.52
2023-05-10T21:34:44.041Z,77.77
2023-05-10T21:37:10.474Z,76.96
2023-05-10T21:39:36.939Z,75.97
2023-05-10T21:42:04.894Z,76.88
2023-05-10T21:44:31.329Z,77.24
2023-05-10T21:46:57.870Z,77.27
2023-05-10T21:49:24.296Z,76.92
2023-05-10T21:51:50.703Z,77.18
2023-05-10T21:54:17.199Z,77.79
2023-05-10T21:56:43.602Z,76.17
2023-05-10T21:59:11.442Z,76.87
2023-05-10T22:01:37.957Z,77.19
2023-05-10T22:04:04.430Z,77.57
2023-05-10T22:06:30.855Z,77.56
2023-05-10T22:08:57.414Z,77.56
2023-05-10T22:11:23.850Z,77.60
2023-05-10T22:13:50.268Z,77.57
2023-05-10T22:16:18.142Z,77.32
2023-05-10T22:18:44.600Z,78.33
2023-05-10T22:21:11.082Z,78.85
2023-05-10T22:23:37.498Z,78.75
2023-05-10T22:26:04.181Z,78.99
2023-05-10T22:28:30.632Z,78.48
2023-05-10T22:30:57.138Z,78.92
2023-05-10T22:33:25.135Z,79.01
2023-05-10T22:35:51.593Z,78.90
2023-05-10T22:38:18.014Z,78.99
2023-05-10T22:40:44.531Z,79.09
2023-05-10T22:43:11.164Z,79.61
2023-05-10T22:45:37.587Z,78.87
2023-05-10T22:48:04.496Z,79.32
2023-05-10T22:50:32.387Z,80.33
2023-05-10T22:52:58.796Z,79.94
2023-05-10T22:55:25.244Z,79.44
2023-05-10T22:57:51.929Z,80.16
2023-05-10T23:00:18.807Z,79.56
2023-05-10T23:02:45.543Z,79.94
2023-05-10T23:05:11.999Z,80.11
2023-05-10T23:07:39.895Z,79.76
2023-05-10T23:10:06.685Z,79.62
2023-05-10T23:12:33.230Z,79.97
2023-05-10T23:14:59.772Z,80.29
2023-05-10T23:17:26.206Z,80.04
2023-05-10T23:19:52.706Z,80.65
2023-05-10T23:22:19.105Z,79.60
2023-05-10T23:24:46.970Z,80.16
2023-05-10T23:27:13.405Z,80.01
2023-05-10T23:29:39.896Z,79.30
2023-05-10T23:32:06.353Z,80.60
2023-05-10T23:34:32.872Z,80.19
2023-05-10T23:36:59.371Z,80.31
2023-05-10T23:39:25.867Z,80.28
2023-05-10T23:41:53.696Z,79.36
2023-05-10T23:44:20.105Z,78.87
2023-05-10T23:46:46.613Z,78.90
2023-05-10T23:49:13.056Z,78.59
2023-05-10T23:51:39.518Z,78.80
2023-05-10T23:54:05.993Z,79.10
2023-05-10T23:56:32.591Z,79.89
2023-05-10T23:59:00.451Z,80.29
